Time;durP1;ratioP1;P1;durP2;ratioP2;P2;SDS_P1;SDS_P2;PMS_P1;PMS_P2;Temp;Humidity;BMP_temperature;BMP_pressure;BME280_temperature;BME280_humidity;BME280_pressure;Samples;Min_cycle;Max_cycle;Signal;HPM_P1;HPM_P2
2022/01/07 00:00:16;;;;;;;2.30;1.20;;;17.80;46.30;;;;;;5072954;28;47998;-82
2022/01/07 00:02:43;;;;;;;3.28;1.30;;;17.80;45.10;;;;;;5063104;28;45381;-83
2022/01/07 00:05:11;;;;;;;4.32;1.52;;;17.80;44.70;;;;;;5061942;28;45279;-82
2022/01/07 00:07:38;;;;;;;4.95;1.65;;;17.80;45.10;;;;;;5059883;28;45440;-82
2022/01/07 00:10:07;;;;;;;3.67;1.42;;;17.70;45.00;;;;;;5066133;28;47936;-82
2022/01/07 00:12:36;;;;;;;3.17;1.42;;;17.80;45.20;;;;;;5064840;28;45153;-82
2022/01/07 00:15:03;;;;;;;2.45;1.48;;;17.70;45.80;;;;;;5063009;28;45583;-82
2022/01/07 00:17:31;;;;;;;2.92;1.25;;;17.70;44.80;;;;;;5061957;28;45363;-83
2022/01/07 00:19:58;;;;;;;3.47;1.30;;;17.70;45.40;;;;;;5060071;28;47136;-83
2022/01/07 00:22:25;;;;;;;2.47;1.27;;;17.70;45.80;;;;;;5065494;28;45165;-82
2022/01/07 00:24:52;;;;;;;5.15;1.52;;;17.70;45.30;;;;;;5066457;28;45312;-82
2022/01/07 00:27:19;;;;;;;2.50;1.25;;;17.70;45.50;;;;;;5071912;28;45443;-82
2022/01/07 00:29:47;;;;;;;2.72;1.00;;;17.70;45.70;;;;;;5066553;28;48320;-82
2022/01/07 00:32:15;;;;;;;2.65;1.33;;;17.70;46.80;;;;;;5066901;28;45307;-82
2022/01/07 00:34:41;;;;;;;4.03;1.58;;;17.70;49.00;;;;;;5065800;28;45204;-81
2022/01/07 00:37:08;;;;;;;4.38;1.35;;;17.70;46.20;;;;;;5064608;28;45299;-82
2022/01/07 00:39:35;;;;;;;1.63;0.95;;;17.50;49.20;;;;;;5064301;28;46501;-83
2022/01/07 00:42:02;;;;;;;4.45;1.42;;;17.70;46.10;;;;;;5075376;28;45232;-82
2022/01/07 00:44:29;;;;;;;3.15;1.25;;;17.70;45.90;;;;;;5065133;28;45184;-82
2022/01/07 00:46:57;;;;;;;1.70;1.13;;;17.70;45.80;;;;;;5073169;28;45150;-82
2022/01/07 00:49:24;;;;;;;2.10;0.98;;;17.70;45.20;;;;;;5069888;28;48339;-82
2022/01/07 00:51:52;;;;;;;2.38;1.30;;;17.70;45.20;;;;;;5075028;28;45261;-82
2022/01/07 00:54:19;;;;;;;3.05;1.10;;;17.70;45.10;;;;;;5068333;28;45447;-81
2022/01/07 00:56:46;;;;;;;2.42;1.13;;;17.70;44.90;;;;;;5068988;28;45169;-81
2022/01/07 00:59:13;;;;;;;3.88;1.60;;;17.70;44.80;;;;;;5060069;28;47358;-82
2022/01/07 01:01:41;;;;;;;2.13;1.33;;;17.70;44.70;;;;;;5061406;28;45249;-83
2022/01/07 01:04:09;;;;;;;1.98;1.08;;;18.80;45.80;;;;;;5074660;28;45074;-83
2022/01/07 01:06:40;;;;;;;2.60;1.20;;;17.70;46.10;;;;;;5064832;28;45358;-82
2022/01/07 01:09:07;;;;;;;2.75;1.15;;;17.70;45.90;;;;;;5057924;28;46228;-82
2022/01/07 01:11:34;;;;;;;2.53;1.27;;;17.70;44.50;;;;;;5061693;28;45372;-81
2022/01/07 01:14:02;;;;;;;3.78;1.33;;;17.70;44.60;;;;;;5055027;28;45218;-82
2022/01/07 01:16:28;;;;;;;1.65;1.15;;;17.70;45.50;;;;;;5060600;28;45074;-83
2022/01/07 01:18:55;;;;;;;2.25;1.10;;;17.70;46.00;;;;;;5063000;28;47029;-83
2022/01/07 01:21:24;;;;;;;3.83;1.25;;;17.70;45.70;;;;;;5078135;28;45375;-81
2022/01/07 01:23:51;;;;;;;2.58;1.10;;;17.70;46.50;;;;;;5064867;28;45305;-83
2022/01/07 01:26:19;;;;;;;2.72;1.08;;;17.70;45.50;;;;;;5076031;28;45163;-82
2022/01/07 01:28:47;;;;;;;2.28;1.10;;;17.70;45.50;;;;;;5073779;28;47033;-83
2022/01/07 01:31:17;;;;;;;2.15;1.20;;;17.70;45.50;;;;;;5057778;28;46103;-83
2022/01/07 01:33:44;;;;;;;2.33;1.10;;;17.70;48.10;;;;;;5058695;28;45322;-82
2022/01/07 01:36:11;;;;;;;2.95;1.25;;;17.70;45.10;;;;;;5064065;28;45211;-82
2022/01/07 01:38:40;;;;;;;2.05;1.20;;;17.70;45.60;;;;;;5076282;28;46456;-82
2022/01/07 01:41:08;;;;;;;2.17;1.10;;;17.70;44.60;;;;;;5066020;28;45282;-82
2022/01/07 01:43:35;;;;;;;1.40;0.90;;;17.70;44.70;;;;;;5057924;28;45217;-82
2022/01/07 01:46:02;;;;;;;1.50;0.90;;;17.70;44.60;;;;;;5056175;28;44875;-82
2022/01/07 01:48:29;;;;;;;1.35;0.80;;;17.70;44.30;;;;;;5074222;28;46312;-82
2022/01/07 01:50:56;;;;;;;2.10;1.10;;;17.70;44.50;;;;;;5073851;28;45151;-82
2022/01/07 01:53:25;;;;;;;1.35;0.82;;;17.70;44.40;;;;;;5056547;28;45205;-82
2022/01/07 01:55:54;;;;;;;1.35;0.90;;;17.70;44.50;;;;;;5071746;28;45354;-82
2022/01/07 01:58:21;;;;;;;2.13;1.02;;;17.70;44.40;;;;;;5073384;28;45318;-82
2022/01/07 02:00:49;;;;;;;3.40;1.00;;;17.70;44.50;;;;;;5074927;28;45095;-83
2022/01/07 02:03:16;;;;;;;2.65;1.27;;;17.70;46.80;;;;;;5067128;28;46478;-83
2022/01/07 02:05:45;;;;;;;3.08;1.17;;;17.90;47.20;;;;;;5067724;28;45171;-82
2022/01/07 02:08:12;;;;;;;1.52;1.00;;;17.70;45.40;;;;;;5057594;28;47240;-82
2022/01/07 02:10:39;;;;;;;3.15;1.35;;;17.70;45.80;;;;;;5068228;28;45209;-83
2022/01/07 02:13:08;;;;;;;3.95;1.25;;;17.80;45.70;;;;;;5076338;28;45303;-83
2022/01/07 02:15:37;;;;;;;1.95;1.08;;;17.80;45.40;;;;;;5059212;28;45206;-82
2022/01/07 02:18:05;;;;;;;1.65;0.93;;;17.80;46.10;;;;;;5057804;28;46797;-82
2022/01/07 02:20:33;;;;;;;1.63;1.15;;;17.80;45.10;;;;;;5063487;28;47313;-82
2022/01/07 02:23:01;;;;;;;2.13;1.05;;;17.70;44.60;;;;;;5070270;28;45224;-81
2022/01/07 02:25:28;;;;;;;2.00;0.95;;;17.70;44.20;;;;;;5063937;28;44818;-82
2022/01/07 02:27:56;;;;;;;2.50;1.00;;;17.70;44.50;;;;;;5074375;28;48070;-83
2022/01/07 02:30:25;;;;;;;2.38;1.27;;;17.70;44.30;;;;;;5070921;28;45310;-82
2022/01/07 02:32:51;;;;;;;2.13;1.05;;;17.70;44.40;;;;;;5056704;28;44897;-82
2022/01/07 02:35:20;;;;;;;1.73;1.13;;;17.70;44.30;;;;;;5056763;28;45168;-82
2022/01/07 02:37:48;;;;;;;2.45;1.20;;;17.70;44.80;;;;;;5068736;28;46798;-82
2022/01/07 02:40:15;;;;;;;1.75;0.88;;;17.20;44.00;;;;;;5066649;28;45381;-82
2022/01/07 02:42:43;;;;;;;2.60;1.15;;;17.70;44.70;;;;;;5075654;28;45224;-82
2022/01/07 02:45:11;;;;;;;3.33;1.20;;;17.70;44.50;;;;;;5076806;28;45372;-81
2022/01/07 02:47:49;;;;;;;2.15;0.93;;;17.70;44.80;;;;;;5073303;28;46354;-82
2022/01/07 02:50:17;;;;;;;2.30;0.93;;;17.70;45.50;;;;;;5056771;28;45235;-83
2022/01/07 02:52:44;;;;;;;1.02;0.70;;;17.70;45.60;;;;;;5057415;28;45153;-82
2022/01/07 02:55:13;;;;;;;2.33;0.80;;;17.70;45.70;;;;;;5065370;28;45511;-82
2022/01/07 02:57:40;;;;;;;2.65;0.90;;;17.80;45.40;;;;;;5072217;28;46996;-83
2022/01/07 03:00:09;;;;;;;1.65;0.70;;;17.80;46.50;;;;;;5076794;28;45247;-82
2022/01/07 03:02:36;;;;;;;2.10;1.02;;;17.40;45.50;;;;;;5065983;28;45250;-82
2022/01/07 03:05:05;;;;;;;3.58;1.00;;;17.80;46.20;;;;;;5057543;28;45332;-82
2022/01/07 03:07:32;;;;;;;2.72;1.20;;;17.80;45.40;;;;;;5062423;28;47914;-82
2022/01/07 03:09:59;;;;;;;1.42;0.85;;;17.70;45.40;;;;;;5066098;28;45201;-82
2022/01/07 03:12:28;;;;;;;1.33;0.70;;;17.70;44.60;;;;;;5056689;28;45253;-82
2022/01/07 03:14:56;;;;;;;2.17;1.00;;;17.70;44.90;;;;;;5065242;28;45451;-81
2022/01/07 03:17:23;;;;;;;1.15;0.75;;;17.70;45.90;;;;;;5067165;28;47714;-82
2022/01/07 03:19:50;;;;;;;1.50;0.77;;;17.70;45.10;;;;;;5062776;28;45198;-82
2022/01/07 03:22:17;;;;;;;1.13;0.60;;;17.70;44.40;;;;;;5069800;28;45169;-82
2022/01/07 03:24:43;;;;;;;1.83;0.75;;;17.70;45.60;;;;;;5070945;28;45438;-82
2022/01/07 03:27:10;;;;;;;1.30;0.80;;;17.70;44.80;;;;;;5070764;28;45496;-82
2022/01/07 03:29:39;;;;;;;2.20;0.88;;;17.80;44.30;;;;;;5075011;28;45095;-82
2022/01/07 03:32:06;;;;;;;3.13;1.05;;;17.70;44.80;;;;;;5075521;28;45220;-82
2022/01/07 03:34:33;;;;;;;2.13;0.90;;;17.70;45.60;;;;;;5075461;28;45236;-82
2022/01/07 03:37:00;;;;;;;1.83;0.60;;;17.70;45.70;;;;;;5067714;28;47156;-82
2022/01/07 03:39:27;;;;;;;2.03;0.90;;;17.70;45.70;;;;;;5057926;28;45741;-82
2022/01/07 03:41:57;;;;;;;1.75;0.80;;;17.70;45.50;;;;;;5056557;28;45178;-82
2022/01/07 03:44:24;;;;;;;1.63;0.77;;;17.80;45.60;;;;;;5055894;28;45505;-82
2022/01/07 03:46:52;;;;;;;1.83;0.82;;;17.80;45.70;;;;;;5065087;28;46311;-82
2022/01/07 03:49:19;;;;;;;1.33;0.80;;;17.80;45.50;;;;;;5055860;28;45191;-82
2022/01/07 03:51:46;;;;;;;1.33;0.80;;;17.80;45.50;;;;;;5071038;28;45206;-82
2022/01/07 03:54:13;;;;;;;1.55;0.70;;;17.70;45.40;;;;;;5071473;28;45394;-82
2022/01/07 03:56:40;;;;;;;2.22;0.90;;;17.70;44.80;;;;;;5070579;28;46170;-82
2022/01/07 03:59:07;;;;;;;2.00;0.98;;;17.70;44.60;;;;;;5068839;28;45309;-82
2022/01/07 04:01:34;;;;;;;2.42;1.05;;;17.70;44.60;;;;;;5060902;28;45157;-82
2022/01/07 04:04:02;;;;;;;2.25;1.00;;;17.70;45.00;;;;;;5060727;28;45199;-81
2022/01/07 04:06:29;;;;;;;2.40;0.95;;;17.70;44.70;;;;;;5059778;28;47593;-82
2022/01/07 04:08:56;;;;;;;2.72;1.15;;;17.70;45.50;;;;;;5063795;28;45295;-82
2022/01/07 04:11:23;;;;;;;3.40;1.05;;;17.70;44.30;;;;;;5068479;28;45354;-81
2022/01/07 04:13:50;;;;;;;3.00;1.05;;;17.70;44.20;;;;;;5058868;28;45254;-81
2022/01/07 04:16:17;;;;;;;1.63;0.80;;;17.70;44.30;;;;;;5064430;28;47990;-82
2022/01/07 04:18:44;;;;;;;1.58;0.82;;;17.70;44.60;;;;;;5058315;28;45302;-82
2022/01/07 04:21:13;;;;;;;1.50;0.70;;;17.70;44.50;;;;;;5054747;28;45318;-82
2022/01/07 04:23:40;;;;;;;1.77;1.00;;;17.70;45.10;;;;;;5062847;28;45208;-81
2022/01/07 04:26:06;;;;;;;2.58;1.00;;;17.70;45.50;;;;;;5069528;28;47687;-83
2022/01/07 04:28:33;;;;;;;2.00;0.80;;;17.70;45.30;;;;;;5054588;28;45303;-82
2022/01/07 04:31:01;;;;;;;2.28;0.70;;;17.70;45.40;;;;;;5061180;28;45379;-82
2022/01/07 04:33:30;;;;;;;1.98;0.93;;;17.70;45.10;;;;;;5072026;28;45374;-82
2022/01/07 04:35:57;;;;;;;2.20;0.98;;;17.80;45.60;;;;;;5058573;28;47350;-82
2022/01/07 04:38:27;;;;;;;1.70;0.60;;;17.80;45.30;;;;;;5058387;28;45285;-82
2022/01/07 04:40:55;;;;;;;2.50;0.90;;;17.70;45.10;;;;;;5057833;28;45657;-82
2022/01/07 04:43:22;;;;;;;1.15;0.63;;;17.70;44.60;;;;;;5053881;28;45433;-82
2022/01/07 04:45:49;;;;;;;1.65;0.57;;;17.70;44.40;;;;;;5053382;28;46244;-82
2022/01/07 04:48:16;;;;;;;2.63;0.85;;;17.70;44.00;;;;;;5052990;28;45775;-81
2022/01/07 04:50:43;;;;;;;1.42;0.70;;;17.70;44.40;;;;;;5064078;28;45401;-82
2022/01/07 04:53:10;;;;;;;1.40;0.60;;;17.70;44.30;;;;;;5075818;28;45186;-81
2022/01/07 04:55:38;;;;;;;4.07;0.80;;;17.70;43.70;;;;;;5059691;28;48609;-81
2022/01/07 04:58:07;;;;;;;2.22;0.90;;;17.70;43.90;;;;;;5068017;28;45338;-81
2022/01/07 05:00:35;;;;;;;0.98;0.75;;;17.70;44.00;;;;;;5072658;28;45197;-82
2022/01/07 05:03:02;;;;;;;2.08;0.90;;;17.70;44.10;;;;;;5072477;28;45106;-81
2022/01/07 05:05:29;;;;;;;1.80;0.80;;;17.70;44.40;;;;;;5060526;28;47962;-82
2022/01/07 05:07:56;;;;;;;1.80;0.85;;;17.70;44.10;;;;;;5055125;28;45655;-82
2022/01/07 05:10:23;;;;;;;1.52;0.57;;;17.70;45.10;;;;;;5068522;28;45150;-81
2022/01/07 05:12:52;;;;;;;1.83;1.00;;;17.70;45.20;;;;;;5064550;28;45510;-82
2022/01/07 05:17:54;;;;;;;2.03;0.80;;;17.80;45.60;;;;;;5166912;22;45017;-83
2022/01/07 05:20:21;;;;;;;2.38;1.00;;;17.80;45.60;;;;;;5078952;28;44522;-83
2022/01/07 05:22:48;;;;;;;3.13;0.90;;;17.80;45.50;;;;;;5078399;28;44683;-82
2022/01/07 05:25:16;;;;;;;2.20;0.73;;;17.80;45.60;;;;;;5076078;28;45198;-82
2022/01/07 05:27:43;;;;;;;1.92;0.65;;;17.80;45.10;;;;;;5073192;28;45819;-82
2022/01/07 05:30:18;;;;;;;1.15;0.70;;;17.70;45.00;;;;;;5073150;28;44573;-82
2022/01/07 05:32:46;;;;;;;1.65;0.60;;;17.70;44.90;;;;;;5072948;28;44844;-82
2022/01/07 05:35:14;;;;;;;2.78;0.85;;;17.70;44.80;;;;;;5071904;28;47694;-82
2022/01/07 05:37:41;;;;;;;1.95;0.80;;;17.70;44.80;;;;;;5088868;28;45096;-82
2022/01/07 05:40:10;;;;;;;1.27;0.55;;;17.70;45.10;;;;;;5086259;28;44731;-81
2022/01/07 05:42:38;;;;;;;1.77;0.95;;;17.70;44.90;;;;;;5076787;28;45243;-82
2022/01/07 05:45:06;;;;;;;1.20;0.70;;;17.70;45.00;;;;;;5086121;28;45663;-82
2022/01/07 05:47:37;;;;;;;1.80;0.70;;;17.70;46.20;;;;;;5077970;28;44793;-82
2022/01/07 05:50:06;;;;;;;1.48;0.75;;;17.70;45.10;;;;;;5090332;28;44969;-82
2022/01/07 05:52:34;;;;;;;2.15;0.80;;;17.70;46.20;;;;;;5090867;28;45247;-82
2022/01/07 05:55:03;;;;;;;1.23;0.60;;;17.70;45.30;;;;;;5078392;28;47778;-82
2022/01/07 05:57:31;;;;;;;1.58;0.60;;;17.70;45.80;;;;;;5074864;28;44714;-83
2022/01/07 05:59:59;;;;;;;2.28;0.60;;;17.70;45.90;;;;;;5079134;28;44743;-84
2022/01/07 06:02:26;;;;;;;1.67;0.77;;;17.70;46.00;;;;;;5076423;28;44794;-85
2022/01/07 06:04:56;;;;;;;1.40;0.50;;;17.70;47.10;;;;;;5068493;28;45473;-83
2022/01/07 06:07:24;;;;;;;0.90;0.60;;;16.60;46.60;;;;;;5073725;28;44972;-85
2022/01/07 06:09:54;;;;;;;3.10;0.70;;;17.70;48.00;;;;;;5078039;28;44858;-84
2022/01/07 06:12:24;;;;;;;2.13;0.52;;;17.80;50.80;;;;;;5083397;28;44806;-84
2022/01/07 06:14:57;;;;;;;2.63;0.80;;;17.80;49.10;;;;;;5063101;28;45357;-87
2022/01/07 06:17:26;;;;;;;2.53;0.75;;;18.20;47.30;;;;;;5080377;28;45119;-85
2022/01/07 06:19:55;;;;;;;1.08;0.60;;;17.80;51.40;;;;;;5067043;28;44652;-85
2022/01/07 06:22:24;;;;;;;1.27;0.60;;;17.90;47.70;;;;;;5092950;28;44784;-84
2022/01/07 06:24:52;;;;;;;2.25;0.85;;;18.10;53.00;;;;;;5084468;28;45519;-84
2022/01/07 06:27:21;;;;;;;1.08;0.57;;;17.80;53.60;;;;;;5081824;28;45332;-84
2022/01/07 06:29:51;;;;;;;1.08;0.63;;;17.80;51.90;;;;;;5091432;28;44783;-84
2022/01/07 06:32:19;;;;;;;2.00;0.75;;;17.70;51.70;;;;;;5088008;28;44869;-87
2022/01/07 06:34:46;;;;;;;1.60;0.85;;;15.70;46.90;;;;;;5075357;28;47754;-83
2022/01/07 06:37:25;;;;;;;1.73;0.60;;;19.50;51.70;;;;;;5077044;28;45019;-84
2022/01/07 06:39:52;;;;;;;1.42;0.63;;;17.60;46.40;;;;;;5092289;28;44629;-82
2022/01/07 06:42:20;;;;;;;2.08;0.70;;;17.60;48.70;;;;;;5075639;28;45028;-81
2022/01/07 06:44:47;;;;;;;0.47;0.47;;;17.50;47.70;;;;;;5073003;28;45616;-82
2022/01/07 06:47:14;;;;;;;1.02;0.63;;;17.60;47.00;;;;;;5076168;28;44708;-81
2022/01/07 06:49:41;;;;;;;0.85;0.60;;;17.60;47.00;;;;;;5078550;28;44633;-81
2022/01/07 06:52:08;;;;;;;0.85;0.50;;;17.70;47.70;;;;;;5081259;28;44947;-82
2022/01/07 06:54:37;;;;;;;2.00;0.88;;;17.60;49.30;;;;;;5085534;28;45528;-82
2022/01/07 06:57:05;;;;;;;1.75;0.57;;;17.70;47.60;;;;;;5073643;28;44771;-82
2022/01/07 06:59:34;;;;;;;1.42;0.52;;;17.90;47.30;;;;;;5072830;28;44592;-85
2022/01/07 07:02:03;;;;;;;1.48;0.60;;;17.30;49.30;;;;;;5089493;28;44880;-84
2022/01/07 07:04:34;;;;;;;1.70;0.57;;;17.70;52.30;;;;;;5073520;28;46124;-84
2022/01/07 07:07:02;;;;;;;0.77;0.55;;;18.10;47.80;;;;;;5093104;28;44697;-82
2022/01/07 07:09:29;;;;;;;1.65;0.47;;;17.60;52.50;;;;;;5081878;28;44885;-82
2022/01/07 07:11:57;;;;;;;0.60;0.50;;;17.60;50.40;;;;;;5084753;28;44751;-83
2022/01/07 07:14:24;;;;;;;1.25;0.55;;;17.60;48.90;;;;;;5070360;28;45475;-82
2022/01/07 07:16:52;;;;;;;2.03;0.90;;;17.60;47.90;;;;;;5070330;28;44705;-86
2022/01/07 07:19:21;;;;;;;1.13;0.98;;;17.70;49.40;;;;;;5071529;28;44692;-82
2022/01/07 07:21:48;;;;;;;1.20;0.50;;;17.60;48.00;;;;;;5089139;28;44815;-83
2022/01/07 07:24:18;;;;;;;0.68;0.60;;;17.70;49.90;;;;;;5084567;28;45317;-84
2022/01/07 07:26:49;;;;;;;0.77;0.50;;;16.10;50.50;;;;;;5055915;28;44751;-85
2022/01/07 07:29:21;;;;;;;0.75;0.60;;;17.90;53.80;;;;;;5077901;28;44805;-84
2022/01/07 07:31:54;;;;;;;0.77;0.50;;;17.80;54.20;;;;;;5092769;28;44897;-84
2022/01/07 07:37:02;;;;;;;2.40;0.60;;;18.00;51.50;;;;;;5057596;28;45141;-82
2022/01/07 07:39:29;;;;;;;1.33;0.68;;;17.70;48.10;;;;;;5071248;28;44720;-80
2022/01/07 07:41:56;;;;;;;2.92;0.70;;;17.70;48.10;;;;;;5070934;28;44957;-81
2022/01/07 07:44:27;;;;;;;0.82;0.45;;;17.70;48.70;;;;;;5085080;28;46709;-83
2022/01/07 07:46:54;;;;;;;0.60;0.40;;;17.70;49.20;;;;;;5081205;28;44646;-81
2022/01/07 07:49:23;;;;;;;0.73;0.55;;;17.70;49.20;;;;;;5077867;28;44937;-83
2022/01/07 07:51:53;;;;;;;1.70;0.60;;;17.80;51.10;;;;;;5063137;28;44819;-83
2022/01/07 07:54:22;;;;;;;0.90;0.70;;;17.80;50.20;;;;;;5083028;28;45481;-82
2022/01/07 07:56:49;;;;;;;1.45;0.45;;;17.80;51.90;;;;;;5083681;28;44645;-82
2022/01/07 07:59:16;;;;;;;0.65;0.52;;;17.20;48.60;;;;;;5091587;28;44802;-83
2022/01/07 08:01:45;;;;;;;0.98;0.50;;;17.80;48.80;;;;;;5083225;28;45040;-82
2022/01/07 08:04:12;;;;;;;1.63;0.60;;;17.90;48.90;;;;;;5077505;28;46978;-82
2022/01/07 08:06:42;;;;;;;0.90;0.63;;;17.90;48.50;;;;;;5091506;28;44724;-82
2022/01/07 08:09:10;;;;;;;0.55;0.50;;;18.00;48.90;;;;;;5091325;28;44788;-82
2022/01/07 08:11:49;;;;;;;0.43;0.40;;;17.90;50.10;;;;;;5086804;28;45186;-82
2022/01/07 08:17:07;;;;;;;0.75;0.50;;;18.20;51.30;;;;;;5081110;28;44714;-82
2022/01/07 08:19:35;;;;;;;0.95;0.50;;;17.90;49.10;;;;;;5075278;28;45100;-83
2022/01/07 08:22:03;;;;;;;1.33;0.60;;;17.90;48.60;;;;;;5085549;28;44994;-82
2022/01/07 08:24:30;;;;;;;0.32;0.30;;;17.90;48.10;;;;;;5080150;28;46302;-81
2022/01/07 08:27:01;;;;;;;1.00;0.47;;;17.90;48.70;;;;;;5078062;28;44727;-81
2022/01/07 08:29:31;;;;;;;1.05;0.50;;;17.90;48.10;;;;;;5069891;28;44739;-81
2022/01/07 08:34:54;;;;;;;1.08;0.57;;;17.80;47.80;;;;;;5073286;28;44982;-81
2022/01/07 08:37:23;;;;;;;1.85;0.50;;;17.80;47.90;;;;;;5077870;28;44989;-81
2022/01/07 08:39:52;;;;;;;1.20;0.57;;;17.80;47.70;;;;;;5074823;28;45541;-81
2022/01/07 08:42:22;;;;;;;1.05;0.50;;;17.80;47.70;;;;;;5084228;28;44731;-81
2022/01/07 08:44:51;;;;;;;0.63;0.40;;;17.80;47.80;;;;;;5078625;28;45520;-81
2022/01/07 08:47:19;;;;;;;0.80;0.50;;;17.80;47.60;;;;;;5078870;28;45596;-81
2022/01/07 08:49:47;;;;;;;1.25;0.50;;;17.80;47.60;;;;;;5074282;28;44720;-81
2022/01/07 08:52:15;;;;;;;0.30;0.30;;;17.80;48.30;;;;;;5083330;28;44737;-82
2022/01/07 08:54:42;;;;;;;1.25;0.40;;;17.80;48.30;;;;;;5077238;28;46670;-81
2022/01/07 08:57:11;;;;;;;0.75;0.50;;;17.80;48.10;;;;;;5070616;28;44633;-82
2022/01/07 08:59:38;;;;;;;1.05;0.38;;;17.80;50.30;;;;;;5070662;28;44685;-81
2022/01/07 09:02:06;;;;;;;0.38;0.38;;;17.90;48.10;;;;;;5084501;28;44945;-81
2022/01/07 09:04:33;;;;;;;0.50;0.50;;;17.90;48.10;;;;;;5083856;28;46930;-81
2022/01/07 09:07:03;;;;;;;2.42;0.60;;;17.90;49.20;;;;;;5069870;28;44760;-82
2022/01/07 09:09:30;;;;;;;0.65;0.40;;;17.90;47.90;;;;;;5068251;28;44716;-81
2022/01/07 09:12:04;;;;;;;0.45;0.45;;;17.90;47.80;;;;;;5070226;28;44676;-81
2022/01/07 09:14:32;;;;;;;0.63;0.40;;;17.80;47.50;;;;;;5069262;28;45393;-82
2022/01/07 09:17:00;;;;;;;0.60;0.30;;;18.50;48.30;;;;;;5087958;28;44723;-82
2022/01/07 09:19:28;;;;;;;1.80;0.30;;;17.80;48.00;;;;;;5089920;28;44662;-82
2022/01/07 09:21:56;;;;;;;0.85;0.40;;;18.20;52.90;;;;;;5088410;28;44843;-83
2022/01/07 09:24:27;;;;;;;0.63;0.30;;;17.80;47.20;;;;;;5073623;28;46096;-81
2022/01/07 09:26:55;;;;;;;0.98;0.50;;;16.50;46.00;;;;;;5072829;28;44743;-82
2022/01/07 09:29:23;;;;;;;1.15;0.50;;;17.80;47.40;;;;;;5083705;28;44870;-81
2022/01/07 09:31:51;;;;;;;1.08;0.50;;;17.80;47.40;;;;;;5080869;28;44857;-82
2022/01/07 09:34:19;;;;;;;0.63;0.47;;;18.40;51.50;;;;;;5077267;28;46917;-82
2022/01/07 09:36:46;;;;;;;1.02;0.50;;;18.30;47.60;;;;;;5081723;28;45212;-82
2022/01/07 09:39:14;;;;;;;1.85;0.20;;;17.80;48.00;;;;;;5076322;28;44683;-82
2022/01/07 09:41:42;;;;;;;0.30;0.30;;;17.80;47.90;;;;;;5079412;28;44773;-82
2022/01/07 09:44:10;;;;;;;0.50;0.30;;;17.80;48.40;;;;;;5083402;28;45849;-83
2022/01/07 09:46:38;;;;;;;0.63;0.38;;;17.80;47.80;;;;;;5088882;28;45525;-82
2022/01/07 09:49:12;;;;;;;0.73;0.25;;;17.80;47.90;;;;;;5085372;28;44601;-82
2022/01/07 09:51:42;;;;;;;0.30;0.22;;;17.90;52.70;;;;;;5088010;28;45220;-82
2022/01/07 09:54:15;;;;;;;0.52;0.20;;;17.80;47.50;;;;;;5082742;28;47343;-82
2022/01/07 09:56:44;;;;;;;0.50;0.30;;;17.80;48.30;;;;;;5073831;28;44708;-83
2022/01/07 09:59:12;;;;;;;0.40;0.40;;;18.10;50.10;;;;;;5083396;28;44665;-83
2022/01/07 10:01:55;;;;;;;0.32;0.30;;;17.80;48.40;;;;;;5088690;28;44782;-82
2022/01/07 10:04:33;;;;;;;0.40;0.30;;;17.80;47.70;;;;;;5073918;28;45697;-82
2022/01/07 10:07:12;;;;;;;0.65;0.30;;;17.80;48.10;;;;;;5084503;28;45323;-82
2022/01/07 10:09:39;;;;;;;0.40;0.40;;;17.80;47.20;;;;;;5084164;28;44657;-82
2022/01/07 10:12:08;;;;;;;0.43;0.22;;;17.80;47.90;;;;;;5087956;28;44874;-83
2022/01/07 10:14:37;;;;;;;0.85;0.20;;;17.80;48.80;;;;;;5087667;28;47596;-83
2022/01/07 10:17:05;;;;;;;0.40;0.30;;;17.70;48.10;;;;;;5092785;28;45235;-83
2022/01/07 10:19:37;;;;;;;0.32;0.30;;;17.70;48.40;;;;;;5091061;28;44672;-82
2022/01/07 10:22:06;;;;;;;0.40;0.40;;;17.70;49.00;;;;;;5076469;28;45082;-82
2022/01/07 10:24:56;;;;;;;0.40;0.20;;;17.70;48.10;;;;;;5082516;28;47694;-85
2022/01/07 10:27:29;;;;;;;0.50;0.30;;;17.70;48.70;;;;;;5073123;28;44695;-85
2022/01/07 10:29:56;;;;;;;0.80;0.30;;;18.30;55.10;;;;;;5073237;28;44672;-85
2022/01/07 10:32:29;;;;;;;0.45;0.30;;;17.90;53.20;;;;;;5086391;28;44782;-84
2022/01/07 10:35:06;;;;;;;0.40;0.10;;;17.80;49.20;;;;;;5075198;28;46813;-85
2022/01/07 10:37:34;;;;;;;1.15;0.40;;;18.70;49.50;;;;;;5075286;28;44726;-83
2022/01/07 10:40:01;;;;;;;0.90;0.25;;;17.60;52.80;;;;;;5088298;28;44720;-83
2022/01/07 10:42:32;;;;;;;1.27;0.38;;;18.00;55.30;;;;;;5087421;28;44739;-84
2022/01/07 10:45:01;;;;;;;0.50;0.40;;;19.00;52.30;;;;;;5089347;28;47547;-83
2022/01/07 10:47:29;;;;;;;0.35;0.30;;;19.90;54.40;;;;;;5075773;28;44684;-83
2022/01/07 10:50:14;;;;;;;0.95;0.35;;;17.60;50.90;;;;;;5076076;28;44708;-83
2022/01/07 10:52:43;;;;;;;0.65;0.30;;;17.80;47.90;;;;;;5074893;28;44921;-83
2022/01/07 10:55:11;;;;;;;1.05;0.20;;;19.50;56.10;;;;;;5085948;28;47294;-83
2022/01/07 10:57:44;;;;;;;0.40;0.28;;;17.90;48.40;;;;;;5084839;28;44625;-83
2022/01/07 11:00:13;;;;;;;1.27;0.47;;;17.80;51.10;;;;;;5091076;28;44803;-83
2022/01/07 11:02:40;;;;;;;0.57;0.40;;;17.80;53.30;;;;;;5091312;28;44773;-83
2022/01/07 11:05:09;;;;;;;0.60;0.30;;;17.60;51.70;;;;;;5088913;28;46790;-82
2022/01/07 11:07:37;;;;;;;0.52;0.20;;;17.70;48.70;;;;;;5087225;28;44710;-82
2022/01/07 11:10:06;;;;;;;0.20;0.20;;;17.70;48.50;;;;;;5090164;28;44636;-83
2022/01/07 11:12:37;;;;;;;0.68;0.47;;;17.70;48.00;;;;;;5075793;28;44743;-83
2022/01/07 11:15:09;;;;;;;1.77;0.20;;;17.70;48.50;;;;;;5077028;28;45583;-83
2022/01/07 11:17:37;;;;;;;1.00;0.40;;;17.70;48.00;;;;;;5078705;28;44737;-84
2022/01/07 11:20:07;;;;;;;0.30;0.30;;;17.90;51.80;;;;;;5078374;28;44684;-84
2022/01/07 11:22:40;;;;;;;0.70;0.40;;;17.80;48.80;;;;;;5084339;28;44759;-83
2022/01/07 11:25:10;;;;;;;0.50;0.28;;;17.60;47.70;;;;;;5078631;28;45272;-83
2022/01/07 11:27:51;;;;;;;0.77;0.30;;;17.80;53.40;;;;;;5076906;28;45250;-83
2022/01/07 11:30:23;;;;;;;0.30;0.30;;;20.30;54.60;;;;;;5065502;28;44666;-84
2022/01/07 11:32:51;;;;;;;0.30;0.30;;;18.40;53.50;;;;;;5079861;28;45001;-83
2022/01/07 11:35:49;;;;;;;0.70;0.50;;;20.30;57.50;;;;;;5072840;28;47195;-84
2022/01/07 11:38:32;;;;;;;0.77;0.40;;;17.80;47.80;;;;;;5074361;28;44977;-83
2022/01/07 11:41:02;;;;;;;0.47;0.30;;;20.00;50.10;;;;;;5087551;28;44754;-86
2022/01/07 11:43:35;;;;;;;0.40;0.40;;;17.60;49.70;;;;;;5079732;28;44577;-84
2022/01/07 11:46:25;;;;;;;0.30;0.30;;;17.70;48.00;;;;;;5075406;28;47607;-83
2022/01/07 11:48:57;;;;;;;0.38;0.30;;;18.10;49.70;;;;;;5079339;28;44668;-84
2022/01/07 11:51:25;;;;;;;0.85;0.47;;;17.70;48.80;;;;;;5079602;28;44675;-83
2022/01/07 11:54:09;;;;;;;0.80;0.57;;;17.70;52.30;;;;;;5088499;28;44854;-83
2022/01/07 11:56:37;;;;;;;0.52;0.40;;;18.20;48.10;;;;;;5077310;28;46529;-83
2022/01/07 11:59:26;;;;;;;0.63;0.30;;;17.90;48.80;;;;;;5083201;28;44648;-83
2022/01/07 12:02:04;;;;;;;1.90;0.50;;;17.70;47.70;;;;;;5084819;28;44659;-83
2022/01/07 12:04:33;;;;;;;1.35;0.40;;;17.80;48.10;;;;;;5080805;28;45831;-83
2022/01/07 12:07:04;;;;;;;0.38;0.38;;;17.80;50.30;;;;;;5083685;28;45456;-83
2022/01/07 12:09:43;;;;;;;1.35;0.60;;;17.50;48.60;;;;;;5073375;28;44806;-84
2022/01/07 12:12:13;;;;;;;0.43;0.40;;;18.30;50.70;;;;;;5070756;28;45063;-84
2022/01/07 12:14:53;;;;;;;0.50;0.30;;;18.50;50.00;;;;;;5083493;28;45704;-84
2022/01/07 12:17:24;;;;;;;1.10;0.50;;;17.90;54.30;;;;;;5074345;28;46973;-83
2022/01/07 12:20:21;;;;;;;1.15;0.65;;;17.80;51.40;;;;;;5079899;28;44553;-83
2022/01/07 12:22:53;;;;;;;0.70;0.50;;;17.80;48.10;;;;;;5074229;28;44783;-84
2022/01/07 12:25:26;;;;;;;0.43;0.40;;;17.80;48.20;;;;;;5076069;28;44993;-83
2022/01/07 12:28:01;;;;;;;1.20;0.60;;;17.80;53.70;;;;;;5090236;28;45523;-83
2022/01/07 12:30:31;;;;;;;1.27;0.60;;;20.00;50.50;;;;;;5083875;28;45875;-83
2022/01/07 12:33:07;;;;;;;0.65;0.50;;;17.80;48.40;;;;;;5090700;28;44796;-83
2022/01/07 12:35:34;;;;;;;1.13;0.65;;;17.80;48.50;;;;;;5091291;28;44848;-84
2022/01/07 12:38:09;;;;;;;1.95;0.68;;;17.80;51.10;;;;;;5084315;28;46221;-83
2022/01/07 12:40:38;;;;;;;0.73;0.50;;;17.80;50.70;;;;;;5091055;28;44707;-83
2022/01/07 12:43:05;;;;;;;1.27;0.73;;;17.60;49.80;;;;;;5079282;28;44947;-84
2022/01/07 12:45:37;;;;;;;2.08;0.90;;;18.10;49.60;;;;;;5082318;28;44801;-84
2022/01/07 12:48:06;;;;;;;0.70;0.47;;;17.90;51.20;;;;;;5080342;28;45374;-84
2022/01/07 12:50:36;;;;;;;1.63;0.60;;;17.70;48.40;;;;;;5091015;28;45479;-83
2022/01/07 12:53:09;;;;;;;0.93;0.50;;;17.70;48.80;;;;;;5091022;28;44621;-84
2022/01/07 12:55:38;;;;;;;0.93;0.52;;;17.70;48.60;;;;;;5071574;28;44793;-83
2022/01/07 12:58:06;;;;;;;1.65;0.60;;;18.80;55.60;;;;;;5070348;28;47401;-83
2022/01/07 13:00:35;;;;;;;1.35;0.60;;;17.80;50.90;;;;;;5071557;28;44726;-84
2022/01/07 13:03:07;;;;;;;1.05;0.55;;;17.70;52.00;;;;;;5079202;28;44756;-84
2022/01/07 13:05:37;;;;;;;1.60;0.75;;;18.10;50.40;;;;;;5089567;28;44837;-83
2022/01/07 13:08:09;;;;;;;1.17;0.55;;;17.70;49.80;;;;;;5089646;28;46716;-83